createdAt,value
2022-12-29T00:01:45.384Z,67.73
2022-12-29T00:04:17.114Z,67.67
2022-12-29T00:06:45.323Z,67.65
2022-12-29T00:09:14.105Z,67.59
2022-12-29T00:11:42.071Z,67.65
2022-12-29T00:14:29.890Z,67.62
2022-12-29T00:16:58.252Z,67.66
2022-12-29T00:19:44.841Z,67.57
2022-12-29T00:22:33.265Z,67.56
2022-12-29T00:25:02.310Z,67.61
2022-12-29T00:27:49.788Z,67.60
2022-12-29T00:30:42.477Z,67.44
2022-12-29T00:33:32.836Z,67.52
2022-12-29T00:36:05.851Z,67.46
2022-12-29T00:38:56.074Z,67.43
2022-12-29T00:41:42.547Z,67.40
2022-12-29T00:44:11.706Z,67.43
2022-12-29T00:46:41.574Z,67.44
2022-12-29T00:49:30.589Z,67.51
2022-12-29T00:52:07.410Z,67.43
2022-12-29T00:54:39.767Z,67.53
2022-12-29T00:57:09.874Z,67.54
2022-12-29T00:59:38.936Z,67.52
2022-12-29T01:02:07.505Z,67.45
2022-12-29T01:04:35.623Z,67.47
2022-12-29T01:07:03.745Z,67.58
2022-12-29T01:09:50.654Z,67.62
2022-12-29T01:12:38.272Z,67.59
2022-12-29T01:15:06.744Z,67.57
2022-12-29T01:17:35.600Z,67.55
2022-12-29T01:20:04.395Z,67.59
2022-12-29T01:22:32.026Z,67.61
2022-12-29T01:24:59.613Z,67.62
2022-12-29T01:27:27.422Z,67.63
2022-12-29T01:29:55.145Z,67.58
2022-12-29T01:32:23.409Z,67.54
2022-12-29T01:34:51.049Z,67.46
2022-12-29T01:37:18.803Z,67.49
2022-12-29T01:39:46.434Z,67.46
2022-12-29T01:42:20.083Z,67.44
2022-12-29T01:44:50.107Z,67.39
2022-12-29T01:47:29.277Z,67.39
2022-12-29T01:50:02.277Z,67.38
2022-12-29T01:52:33.179Z,67.33
2022-12-29T01:55:04.451Z,67.26
2022-12-29T01:57:39.093Z,67.32
2022-12-29T02:00:11.051Z,67.27
2022-12-29T02:02:46.394Z,67.25
2022-12-29T02:05:33.096Z,67.27
2022-12-29T02:08:02.257Z,67.18
2022-12-29T02:10:34.032Z,67.25
2022-12-29T02:13:01.712Z,67.17
2022-12-29T02:16:14.255Z,67.20
2022-12-29T02:18:51.078Z,67.11
2022-12-29T02:21:27.739Z,67.10
2022-12-29T02:24:22.705Z,67.03
2022-12-29T02:27:21.389Z,67.13
2022-12-29T02:30:35.741Z,67.09
2022-12-29T02:33:25.383Z,67.14
2022-12-29T02:36:34.031Z,67.11
2022-12-29T02:39:22.121Z,67.21
2022-12-29T02:42:14.248Z,67.28
2022-12-29T02:44:47.602Z,67.38
2022-12-29T02:47:31.440Z,67.62
2022-12-29T02:50:07.041Z,68.15
2022-12-29T02:52:40.320Z,68.60
2022-12-29T02:55:08.085Z,69.08
2022-12-29T02:57:36.157Z,69.44
2022-12-29T03:00:12.122Z,69.87
2022-12-29T03:03:02.297Z,70.21
2022-12-29T03:05:52.388Z,70.89
2022-12-29T03:08:44.047Z,71.12
2022-12-29T03:11:35.174Z,71.33
2022-12-29T03:14:51.083Z,71.49
2022-12-29T03:17:36.106Z,71.84
2022-12-29T03:20:15.727Z,72.19
2022-12-29T03:22:48.528Z,72.49
2022-12-29T03:25:32.457Z,72.43
2022-12-29T03:28:09.560Z,72.71
2022-12-29T03:30:42.521Z,73.20
2022-12-29T03:33:16.173Z,73.70
2022-12-29T03:35:47.439Z,73.76
2022-12-29T03:38:26.931Z,73.79
2022-12-29T03:40:59.190Z,74.02
2022-12-29T03:43:28.578Z,74.05
2022-12-29T03:45:56.489Z,74.10
2022-12-29T03:48:24.129Z,74.24
2022-12-29T03:50:52.566Z,74.34
2022-12-29T03:53:20.322Z,74.34
2022-12-29T03:55:48.386Z,74.34
2022-12-29T03:58:17.115Z,74.32
2022-12-29T04:01:09.001Z,74.30
2022-12-29T04:03:38.072Z,74.61
2022-12-29T04:06:06.392Z,74.47
2022-12-29T04:08:41.867Z,74.56
2022-12-29T04:11:09.517Z,74.28
2022-12-29T04:13:37.188Z,74.10
2022-12-29T04:16:05.408Z,73.99
2022-12-29T04:18:33.876Z,74.04
2022-12-29T04:21:03.613Z,74.08
2022-12-29T04:23:35.697Z,74.09
2022-12-29T04:26:07.997Z,74.05
2022-12-29T04:28:39.646Z,73.78
2022-12-29T04:31:46.403Z,73.57
2022-12-29T04:34:14.835Z,73.37
2022-12-29T04:36:42.462Z,73.27
2022-12-29T04:39:10.144Z,73.12
2022-12-29T04:41:39.876Z,73.10
2022-12-29T04:44:09.774Z,73.01
2022-12-29T04:46:56.077Z,72.88
2022-12-29T04:49:46.841Z,72.79
2022-12-29T04:52:47.040Z,72.86
2022-12-29T04:55:15.923Z,72.77
2022-12-29T04:57:43.652Z,72.69
2022-12-29T05:00:15.376Z,72.63
2022-12-29T05:02:43.317Z,72.62
2022-12-29T05:05:11.311Z,72.57
2022-12-29T05:07:42.877Z,72.44
2022-12-29T05:10:11.951Z,72.33
2022-12-29T05:12:39.677Z,72.12
2022-12-29T05:15:09.899Z,72.04
2022-12-29T05:17:38.130Z,71.93
2022-12-29T05:20:08.101Z,71.81
2022-12-29T05:22:36.531Z,71.68
2022-12-29T05:25:05.958Z,71.53
2022-12-29T05:27:40.424Z,71.46
2022-12-29T05:30:19.902Z,71.38
2022-12-29T05:32:47.679Z,71.34
2022-12-29T05:35:15.448Z,71.30
2022-12-29T05:37:43.990Z,71.28
2022-12-29T05:40:12.376Z,71.25
2022-12-29T05:42:41.016Z,71.16
2022-12-29T05:45:34.646Z,71.11
2022-12-29T05:48:31.630Z,71.03
2022-12-29T05:51:28.320Z,70.86
2022-12-29T05:53:56.151Z,70.71
2022-12-29T05:56:24.525Z,70.59
2022-12-29T05:58:57.347Z,70.48
2022-12-29T06:01:25.684Z,70.36
2022-12-29T06:03:54.511Z,70.18
2022-12-29T06:06:22.313Z,69.96
2022-12-29T06:08:50.185Z,69.77
2022-12-29T06:11:18.474Z,69.66
2022-12-29T06:13:51.441Z,69.52
2022-12-29T06:16:19.197Z,69.36
2022-12-29T06:18:46.930Z,69.29
2022-12-29T06:21:14.695Z,69.10
2022-12-29T06:23:42.458Z,68.99
2022-12-29T06:26:10.159Z,68.99
2022-12-29T06:28:38.800Z,68.97
2022-12-29T06:31:10.406Z,68.89
2022-12-29T06:33:39.008Z,68.84
2022-12-29T06:36:07.301Z,68.68
2022-12-29T06:38:36.311Z,68.51
2022-12-29T06:41:04.119Z,68.45
2022-12-29T06:43:47.034Z,68.06
2022-12-29T06:46:30.336Z,67.97
2022-12-29T06:48:57.934Z,67.89
2022-12-29T06:51:25.571Z,67.85
2022-12-29T06:53:53.325Z,67.97
2022-12-29T06:56:20.980Z,67.94
2022-12-29T06:58:48.622Z,67.91
2022-12-29T07:01:16.455Z,67.92
2022-12-29T07:03:44.417Z,67.89
2022-12-29T07:06:12.020Z,67.91
2022-12-29T07:08:39.789Z,67.95
2022-12-29T07:11:07.608Z,68.02
2022-12-29T07:13:35.597Z,68.02
2022-12-29T07:16:10.380Z,67.87
2022-12-29T07:18:38.361Z,67.79
2022-12-29T07:21:06.500Z,67.62
2022-12-29T07:23:34.242Z,67.47
2022-12-29T07:26:03.945Z,67.44
2022-12-29T07:28:33.174Z,67.37
2022-12-29T07:31:00.955Z,67.41
2022-12-29T07:33:33.044Z,67.27
2022-12-29T07:36:01.049Z,67.17
2022-12-29T07:38:28.676Z,67.03
2022-12-29T07:40:59.661Z,66.90
2022-12-29T07:43:27.417Z,66.97
2022-12-29T07:46:56.656Z,66.82
2022-12-29T07:49:08.555Z,66.54
2022-12-29T07:51:36.208Z,66.40
2022-12-29T07:54:04.057Z,66.45
2022-12-29T07:56:31.674Z,66.28
2022-12-29T07:58:59.380Z,66.09
2022-12-29T08:01:27.108Z,65.93
2022-12-29T08:03:57.588Z,65.75
2022-12-29T08:06:25.614Z,65.47
2022-12-29T08:08:53.255Z,65.38
2022-12-29T08:11:21.061Z,65.40
2022-12-29T08:13:48.688Z,65.39
2022-12-29T08:16:16.720Z,65.29
2022-12-29T08:18:44.647Z,65.15
2022-12-29T08:21:12.495Z,65.04
2022-12-29T08:23:40.237Z,64.57
2022-12-29T08:26:07.843Z,64.07
2022-12-29T08:28:35.661Z,64.21
2022-12-29T08:31:04.105Z,63.97
2022-12-29T08:33:32.302Z,63.91
2022-12-29T08:36:01.483Z,63.69
2022-12-29T08:38:30.194Z,63.73
2022-12-29T08:40:58.838Z,63.65
2022-12-29T08:43:26.486Z,63.50
2022-12-29T08:45:54.336Z,63.51
2022-12-29T08:48:23.133Z,63.34
2022-12-29T08:50:51.516Z,63.30
2022-12-29T08:53:19.957Z,63.31
2022-12-29T08:55:58.066Z,63.29
2022-12-29T08:58:30.047Z,63.10
2022-12-29T09:00:58.527Z,62.81
2022-12-29T09:03:54.925Z,62.49
2022-12-29T09:06:17.085Z,62.55
2022-12-29T09:08:45.563Z,62.42
2022-12-29T09:11:19.665Z,62.40
2022-12-29T09:13:48.175Z,62.40
2022-12-29T09:16:16.815Z,62.09
2022-12-29T09:18:45.775Z,61.92
2022-12-29T09:21:13.995Z,62.03
2022-12-29T09:23:42.301Z,62.09
2022-12-29T09:26:10.224Z,62.13
2022-12-29T09:28:38.006Z,62.06
2022-12-29T09:31:05.885Z,62.00
2022-12-29T09:33:36.351Z,61.90
2022-12-29T09:36:04.639Z,61.88
2022-12-29T09:38:32.387Z,61.90
2022-12-29T09:41:27.553Z,61.94
2022-12-29T09:44:14.203Z,62.09
2022-12-29T09:46:46.586Z,61.93
2022-12-29T09:49:26.721Z,62.04
2022-12-29T09:52:04.207Z,61.97
2022-12-29T09:54:55.140Z,61.88
2022-12-29T09:57:36.019Z,61.91
2022-12-29T10:00:22.484Z,61.90
2022-12-29T10:02:59.750Z,61.75
2022-12-29T10:05:31.454Z,61.66
2022-12-29T10:08:20.886Z,61.69
2022-12-29T10:11:05.016Z,61.80
2022-12-29T10:13:57.839Z,61.72
2022-12-29T10:16:59.522Z,61.58
2022-12-29T10:19:54.727Z,61.59
2022-12-29T10:22:37.346Z,61.47
2022-12-29T10:25:16.124Z,61.31
2022-12-29T10:27:44.585Z,60.81
2022-12-29T10:30:14.651Z,60.32
2022-12-29T10:32:56.825Z,60.20
2022-12-29T10:35:27.967Z,60.25
2022-12-29T10:38:13.895Z,60.16
2022-12-29T10:40:50.158Z,60.02
2022-12-29T10:43:21.135Z,60.01
2022-12-29T10:45:49.777Z,59.94
2022-12-29T10:48:28.565Z,59.83
2022-12-29T10:51:02.658Z,59.75
2022-12-29T10:53:46.187Z,59.57
2022-12-29T10:56:32.558Z,59.46
2022-12-29T10:59:09.082Z,59.61
2022-12-29T11:01:47.829Z,59.76
2022-12-29T11:04:41.634Z,59.88
2022-12-29T11:07:15.634Z,60.07
2022-12-29T11:09:44.992Z,60.19
2022-12-29T11:12:26.907Z,60.13
2022-12-29T11:15:02.514Z,60.15
2022-12-29T11:17:30.506Z,60.22
2022-12-29T11:19:58.202Z,60.24
2022-12-29T11:22:29.648Z,60.35
2022-12-29T11:25:11.331Z,60.33
2022-12-29T11:27:39.229Z,60.45
2022-12-29T11:30:25.265Z,60.49
2022-12-29T11:32:54.762Z,60.39
2022-12-29T11:35:41.812Z,60.50
2022-12-29T11:38:22.951Z,60.55
2022-12-29T11:40:51.211Z,60.62
2022-12-29T11:43:35.916Z,60.59
2022-12-29T11:46:05.317Z,60.54
2022-12-29T11:48:39.520Z,60.62
2022-12-29T11:51:08.693Z,60.44
2022-12-29T11:53:46.229Z,60.42
2022-12-29T11:56:23.493Z,60.44
2022-12-29T11:58:51.877Z,60.42
2022-12-29T12:01:27.620Z,60.47
2022-12-29T12:04:19.735Z,60.54
2022-12-29T12:06:58.228Z,60.44
2022-12-29T12:09:34.410Z,60.35
2022-12-29T12:12:04.517Z,60.22
2022-12-29T12:14:57.495Z,60.11
2022-12-29T12:17:50.247Z,60.29
2022-12-29T12:20:40.497Z,60.16
2022-12-29T12:23:14.739Z,60.12
2022-12-29T12:26:11.799Z,60.30
2022-12-29T12:29:04.922Z,60.37
2022-12-29T12:32:44.369Z,60.35
2022-12-29T12:35:19.718Z,60.41
2022-12-29T12:38:08.161Z,60.32
2022-12-29T12:41:21.861Z,60.38
2022-12-29T12:43:57.998Z,60.50
2022-12-29T12:46:31.841Z,60.43
2022-12-29T12:49:34.848Z,60.56
2022-12-29T12:52:17.758Z,60.50
2022-12-29T12:55:11.140Z,60.39
2022-12-29T12:57:56.195Z,60.27
2022-12-29T13:00:24.372Z,60.35
2022-12-29T13:03:18.357Z,60.15
2022-12-29T13:06:24.622Z,60.18
2022-12-29T13:09:24.679Z,60.27
2022-12-29T13:12:26.129Z,60.28
2022-12-29T13:15:10.113Z,60.41
2022-12-29T13:17:48.966Z,60.39
2022-12-29T13:20:43.702Z,60.38
2022-12-29T13:23:26.768Z,60.40
2022-12-29T13:26:16.098Z,60.42
2022-12-29T13:28:46.782Z,60.45
2022-12-29T13:31:31.255Z,60.32
2022-12-29T13:34:44.372Z,60.57
2022-12-29T13:37:19.596Z,60.42
2022-12-29T13:39:53.259Z,60.58
2022-12-29T13:42:22.356Z,60.46
2022-12-29T13:44:56.691Z,60.52
2022-12-29T13:47:39.428Z,60.42
2022-12-29T13:50:23.388Z,60.55
2022-12-29T13:53:06.374Z,60.58
2022-12-29T13:55:48.432Z,60.70
2022-12-29T13:58:26.535Z,60.73
2022-12-29T14:01:15.934Z,60.62
2022-12-29T14:03:50.075Z,60.72
2022-12-29T14:06:20.971Z,60.76
2022-12-29T14:08:50.632Z,60.87
2022-12-29T14:11:21.395Z,60.78
2022-12-29T14:13:49.868Z,60.96
2022-12-29T14:16:36.390Z,60.95
2022-12-29T14:19:10.337Z,60.92
2022-12-29T14:21:38.861Z,61.02
2022-12-29T14:24:40.996Z,60.94
2022-12-29T14:27:08.599Z,61.11
2022-12-29T14:29:39.372Z,61.12
2022-12-29T14:32:22.266Z,61.15
2022-12-29T14:34:52.755Z,61.16
2022-12-29T14:37:23.416Z,61.20
2022-12-29T14:40:23.930Z,61.24
2022-12-29T14:42:54.589Z,61.18
2022-12-29T14:45:22.142Z,61.13
2022-12-29T14:47:52.349Z,61.25
2022-12-29T14:50:26.582Z,61.31
2022-12-29T14:53:03.685Z,61.28
2022-12-29T14:55:49.228Z,61.26
2022-12-29T14:58:19.601Z,61.21
2022-12-29T15:00:47.904Z,61.22
2022-12-29T15:03:32.950Z,61.22
2022-12-29T15:06:12.558Z,61.33
2022-12-29T15:09:12.898Z,61.35
2022-12-29T15:11:40.444Z,61.30
2022-12-29T15:14:29.209Z,61.16
2022-12-29T15:16:56.939Z,61.24
2022-12-29T15:19:26.803Z,61.28
2022-12-29T15:21:56.612Z,61.33
2022-12-29T15:24:25.004Z,61.40
2022-12-29T15:26:55.451Z,61.35
2022-12-29T15:29:39.346Z,61.41
2022-12-29T15:32:15.894Z,61.36
2022-12-29T15:34:49.782Z,61.35
2022-12-29T15:37:26.167Z,61.45
2022-12-29T15:39:55.717Z,61.44
2022-12-29T15:42:23.226Z,61.52
2022-12-29T15:44:57.967Z,61.55
2022-12-29T15:47:31.647Z,61.59
2022-12-29T15:50:13.855Z,61.62
2022-12-29T15:52:41.645Z,61.72
2022-12-29T15:55:21.573Z,61.80
2022-12-29T15:57:49.347Z,61.91
2022-12-29T16:00:32.095Z,62.05
2022-12-29T16:03:02.913Z,62.09
2022-12-29T16:05:36.533Z,62.18
2022-12-29T16:08:21.500Z,62.28
2022-12-29T16:10:50.080Z,62.47
2022-12-29T16:13:45.458Z,62.61
2022-12-29T16:16:21.273Z,62.68
2022-12-29T16:18:57.291Z,62.67
2022-12-29T16:21:29.539Z,62.71
2022-12-29T16:24:02.856Z,62.74
2022-12-29T16:26:30.623Z,62.80
2022-12-29T16:29:01.676Z,62.88
2022-12-29T16:32:01.108Z,62.95
2022-12-29T16:34:42.959Z,63.03
2022-12-29T16:37:29.364Z,63.12
2022-12-29T16:39:57.396Z,63.16
2022-12-29T16:42:42.444Z,63.17
2022-12-29T16:45:19.614Z,63.23
2022-12-29T16:47:49.977Z,63.27
2022-12-29T16:50:28.253Z,63.32
2022-12-29T16:52:56.426Z,63.41
2022-12-29T16:55:24.870Z,63.45
2022-12-29T16:57:57.282Z,63.52
2022-12-29T17:00:28.407Z,63.58
2022-12-29T17:03:00.009Z,63.57
2022-12-29T17:05:27.942Z,63.58
2022-12-29T17:08:01.842Z,63.59
2022-12-29T17:10:53.223Z,63.61
2022-12-29T17:13:21.012Z,63.66
2022-12-29T17:15:48.651Z,63.63
2022-12-29T17:18:16.296Z,63.58
2022-12-29T17:20:43.907Z,63.58
2022-12-29T17:23:21.163Z,63.51
2022-12-29T17:25:55.049Z,63.54
2022-12-29T17:28:27.195Z,63.54
2022-12-29T17:30:59.431Z,63.59
2022-12-29T17:33:31.150Z,63.61
2022-12-29T17:35:58.807Z,63.63
2022-12-29T17:38:34.728Z,63.75
2022-12-29T17:41:02.427Z,63.79
2022-12-29T17:43:36.453Z,63.79
2022-12-29T17:46:07.009Z,63.79
2022-12-29T17:48:35.417Z,63.83
2022-12-29T17:51:03.213Z,63.89
2022-12-29T17:53:31.464Z,63.91
2022-12-29T17:55:59.192Z,63.99
2022-12-29T17:58:29.215Z,64.04
2022-12-29T18:00:59.637Z,64.02
2022-12-29T18:03:33.882Z,64.03
2022-12-29T18:06:02.532Z,64.10
2022-12-29T18:08:30.515Z,64.05
2022-12-29T18:10:58.908Z,64.05
2022-12-29T18:13:40.332Z,64.04
2022-12-29T18:16:13.177Z,64.05
2022-12-29T18:18:41.240Z,64.10
2022-12-29T18:21:15.762Z,64.13
2022-12-29T18:23:43.482Z,64.16
2022-12-29T18:26:28.245Z,64.20
2022-12-29T18:28:57.753Z,64.27
2022-12-29T18:31:30.777Z,64.34
2022-12-29T18:34:01.633Z,64.41
2022-12-29T18:36:29.345Z,64.41
2022-12-29T18:38:57.093Z,64.49
2022-12-29T18:41:29.647Z,64.55
2022-12-29T18:43:59.387Z,64.66
2022-12-29T18:46:27.116Z,64.66
2022-12-29T18:48:54.923Z,64.69
2022-12-29T18:51:24.758Z,64.72
2022-12-29T18:53:54.251Z,64.70
2022-12-29T18:56:24.415Z,64.69
2022-12-29T18:58:53.565Z,64.69
2022-12-29T19:01:24.699Z,64.70
2022-12-29T19:03:52.599Z,64.72
2022-12-29T19:06:21.280Z,64.77
2022-12-29T19:08:49.141Z,64.77
2022-12-29T19:11:17.870Z,64.81
2022-12-29T19:13:45.678Z,64.84
2022-12-29T19:16:22.276Z,64.88
2022-12-29T19:19:07.858Z,64.90
2022-12-29T19:21:37.729Z,64.97
2022-12-29T19:24:05.896Z,65.05
2022-12-29T19:26:36.601Z,65.07
2022-12-29T19:29:07.966Z,65.13
2022-12-29T19:31:37.814Z,65.18
2022-12-29T19:34:05.547Z,65.17
2022-12-29T19:36:33.326Z,65.24
2022-12-29T19:39:00.998Z,65.33
2022-12-29T19:41:28.739Z,65.28
2022-12-29T19:43:56.338Z,65.29
2022-12-29T19:46:25.427Z,65.30
2022-12-29T19:48:58.540Z,65.26
2022-12-29T19:51:27.211Z,65.27
2022-12-29T19:53:55.559Z,65.25
2022-12-29T19:56:23.396Z,65.26
2022-12-29T19:58:51.532Z,65.28
2022-12-29T20:01:22.440Z,65.31
2022-12-29T20:03:51.111Z,65.28
2022-12-29T20:06:19.706Z,65.32
2022-12-29T20:08:48.194Z,65.34
2022-12-29T20:11:18.101Z,65.32
2022-12-29T20:13:46.847Z,65.32
2022-12-29T20:16:17.941Z,65.30
2022-12-29T20:18:47.048Z,65.32
2022-12-29T20:21:23.796Z,65.31
2022-12-29T20:23:54.099Z,65.25
2022-12-29T20:26:25.409Z,65.27
2022-12-29T20:28:54.636Z,65.20
2022-12-29T20:31:32.011Z,65.22
2022-12-29T20:34:00.183Z,65.21
2022-12-29T20:36:30.893Z,65.20
2022-12-29T20:39:00.305Z,65.19
2022-12-29T20:41:28.108Z,65.12
2022-12-29T20:43:55.815Z,65.11
2022-12-29T20:46:33.741Z,65.07
2022-12-29T20:49:04.811Z,65.01
2022-12-29T20:51:55.298Z,64.98
2022-12-29T20:54:21.039Z,64.97
2022-12-29T20:56:49.325Z,64.99
2022-12-29T20:59:27.500Z,64.96
2022-12-29T21:01:57.676Z,64.89
2022-12-29T21:04:25.997Z,64.88
2022-12-29T21:06:54.055Z,64.88
2022-12-29T21:09:21.717Z,64.84
2022-12-29T21:11:49.615Z,64.81
2022-12-29T21:14:17.374Z,64.82
2022-12-29T21:16:45.119Z,64.85
2022-12-29T21:19:13.734Z,64.76
2022-12-29T21:21:41.381Z,64.66
2022-12-29T21:24:09.017Z,64.60
2022-12-29T21:26:36.749Z,64.54
2022-12-29T21:29:04.636Z,64.52
2022-12-29T21:31:35.499Z,64.48
2022-12-29T21:34:05.034Z,64.50
2022-12-29T21:36:33.178Z,64.40
2022-12-29T21:39:03.267Z,64.35
2022-12-29T21:41:32.085Z,64.32
2022-12-29T21:44:18.815Z,64.13
2022-12-29T21:46:49.348Z,64.02
2022-12-29T21:49:17.091Z,64.00
2022-12-29T21:51:50.411Z,63.99
2022-12-29T21:54:45.737Z,63.97
2022-12-29T21:57:36.013Z,63.87
2022-12-29T22:00:28.307Z,63.82
2022-12-29T22:03:22.639Z,63.84
2022-12-29T22:06:10.994Z,63.85
2022-12-29T22:08:58.479Z,63.80
2022-12-29T22:11:44.888Z,63.68
2022-12-29T22:14:12.538Z,63.69
2022-12-29T22:16:40.154Z,63.69
2022-12-29T22:19:08.761Z,63.66
2022-12-29T22:21:36.472Z,63.64
2022-12-29T22:24:04.372Z,63.67
2022-12-29T22:26:32.134Z,63.68
2022-12-29T22:29:00.067Z,63.74
2022-12-29T22:31:30.239Z,63.71
2022-12-29T22:34:01.150Z,63.67
2022-12-29T22:36:30.042Z,63.65
2022-12-29T22:38:57.729Z,63.61
2022-12-29T22:41:25.563Z,63.71
2022-12-29T22:43:53.257Z,63.78
2022-12-29T22:46:21.238Z,63.81
2022-12-29T22:48:49.035Z,63.83
2022-12-29T22:51:16.670Z,63.83
2022-12-29T22:53:45.553Z,63.88
2022-12-29T22:56:14.448Z,64.00
2022-12-29T22:58:43.923Z,64.08
2022-12-29T23:01:13.724Z,64.15
2022-12-29T23:03:42.472Z,64.17
2022-12-29T23:06:16.480Z,64.25
2022-12-29T23:08:44.884Z,64.32
2022-12-29T23:11:13.331Z,64.35
2022-12-29T23:13:44.469Z,64.35
2022-12-29T23:16:13.990Z,64.43
2022-12-29T23:18:42.068Z,64.51
2022-12-29T23:21:10.423Z,64.60
2022-12-29T23:23:53.351Z,64.52
2022-12-29T23:26:25.780Z,64.52
2022-12-29T23:28:59.917Z,64.49
2022-12-29T23:31:29.258Z,64.47
2022-12-29T23:33:58.091Z,64.48
2022-12-29T23:36:26.379Z,64.48
2022-12-29T23:38:54.260Z,64.47
2022-12-29T23:41:22.023Z,64.46
2022-12-29T23:43:50.123Z,64.45
2022-12-29T23:46:24.297Z,64.44
2022-12-29T23:48:52.592Z,64.45
2022-12-29T23:51:20.328Z,64.47
2022-12-29T23:53:48.711Z,64.49
2022-12-29T23:56:19.342Z,64.53
2022-12-29T23:58:47.803Z,64.57
